createdAt,value
2018-02-04T00:02:06.394Z,19.98
2018-02-04T00:04:33.893Z,21.65
2018-02-04T00:07:01.396Z,24.73
2018-02-04T00:09:28.922Z,23.20
2018-02-04T00:11:56.426Z,22.85
2018-02-04T00:14:23.936Z,23.62
2018-02-04T00:16:51.485Z,20.05
2018-02-04T00:19:19.033Z,21.73
2018-02-04T00:21:46.713Z,22.35
2018-02-04T00:24:14.260Z,20.20
2018-02-04T00:26:42.641Z,23.25
2018-02-04T00:29:10.335Z,20.88
2018-02-04T00:31:38.056Z,20.33
2018-02-04T00:34:05.624Z,20.55
2018-02-04T00:36:33.175Z,21.65
2018-02-04T00:39:01.433Z,18.98
2018-02-04T00:41:28.956Z,21.48
2018-02-04T00:43:56.510Z,18.65
2018-02-04T00:46:24.046Z,18.12
2018-02-04T00:48:51.546Z,20.08
2018-02-04T00:51:19.140Z,18.77
2018-02-04T00:53:46.690Z,19.33
2018-02-04T00:56:14.177Z,18.80
2018-02-04T00:58:41.702Z,19.33
2018-02-04T01:01:09.191Z,16.65
2018-02-04T01:03:36.695Z,18.70
2018-02-04T01:06:04.213Z,18.30
2018-02-04T01:08:31.708Z,17.65
2018-02-04T01:10:59.231Z,19.83
2018-02-04T01:13:26.782Z,17.25
2018-02-04T01:15:54.462Z,17.70
2018-02-04T01:18:22.012Z,19.75
2018-02-04T01:20:49.506Z,17.83
2018-02-04T01:23:17.059Z,16.17
2018-02-04T01:25:44.581Z,16.73
2018-02-04T01:28:12.080Z,17.27
2018-02-04T01:30:39.588Z,19.40
2018-02-04T01:33:07.843Z,18.48
2018-02-04T01:35:35.431Z,20.17
2018-02-04T01:38:03.729Z,17.92
2018-02-04T01:40:31.280Z,18.45
2018-02-04T01:42:58.783Z,19.08
2018-02-04T01:45:26.279Z,16.58
2018-02-04T01:48:05.672Z,16.77
2018-02-04T01:50:33.189Z,18.67
2018-02-04T01:53:00.691Z,17.83
2018-02-04T01:55:28.284Z,16.67
2018-02-04T01:57:56.544Z,18.92
2018-02-04T02:00:24.068Z,17.62
2018-02-04T02:02:51.621Z,16.65
2018-02-04T02:05:19.116Z,18.48
2018-02-04T02:07:46.721Z,17.48
2018-02-04T02:10:14.208Z,16.92
2018-02-04T02:12:41.735Z,18.02
2018-02-04T02:15:11.580Z,17.92
2018-02-04T02:17:39.100Z,18.33
2018-02-04T02:20:07.379Z,18.12
2018-02-04T02:22:36.520Z,16.75
2018-02-04T02:25:04.029Z,18.73
2018-02-04T02:27:32.303Z,18.12
2018-02-04T02:30:00.566Z,17.45
2018-02-04T02:32:28.835Z,18.85
2018-02-04T02:34:56.325Z,18.30
2018-02-04T02:37:23.867Z,17.75
2018-02-04T02:39:52.156Z,17.90
2018-02-04T02:42:20.429Z,20.33
2018-02-04T02:44:48.741Z,17.62
2018-02-04T02:47:16.238Z,19.27
2018-02-04T02:49:43.762Z,18.87
2018-02-04T02:52:11.288Z,17.27
2018-02-04T02:54:39.564Z,20.77
2018-02-04T02:57:07.866Z,17.20
2018-02-04T02:59:35.376Z,15.40
2018-02-04T03:02:03.667Z,19.25
2018-02-04T03:04:31.962Z,17.45
2018-02-04T03:06:59.461Z,18.40
2018-02-04T03:09:26.969Z,18.83
2018-02-04T03:11:55.225Z,17.58
2018-02-04T03:14:23.543Z,17.80
2018-02-04T03:16:51.036Z,20.33
2018-02-04T03:19:18.528Z,17.00
2018-02-04T03:21:47.266Z,17.73
2018-02-04T03:24:16.509Z,16.15
2018-02-04T03:29:18.649Z,22.05
2018-02-04T03:31:46.180Z,18.48
2018-02-04T03:34:13.723Z,16.55
2018-02-04T03:36:42.394Z,18.20
2018-02-04T03:39:10.787Z,21.15
2018-02-04T03:41:39.071Z,18.85
2018-02-04T03:44:07.447Z,18.50
2018-02-04T03:46:35.735Z,20.80
2018-02-04T03:49:03.244Z,19.73
2018-02-04T03:51:30.838Z,19.62
2018-02-04T03:53:59.108Z,19.77
2018-02-04T03:56:27.396Z,18.25
2018-02-04T03:58:55.652Z,18.62
2018-02-04T04:01:23.924Z,19.08
2018-02-04T04:03:51.435Z,20.00
2018-02-04T04:06:18.938Z,18.58
2018-02-04T04:08:46.535Z,17.75
2018-02-04T04:11:14.030Z,17.65
2018-02-04T04:13:41.552Z,18.42
2018-02-04T04:16:09.058Z,19.27
2018-02-04T04:18:36.551Z,19.62
2018-02-04T04:21:05.644Z,19.77
2018-02-04T04:23:33.956Z,19.50
2018-02-04T04:26:01.605Z,17.73
2018-02-04T04:28:29.122Z,20.58
2018-02-04T04:30:56.617Z,19.15
2018-02-04T04:33:24.176Z,19.80
2018-02-04T04:35:51.680Z,17.70
2018-02-04T04:38:19.201Z,18.60
2018-02-04T04:40:46.734Z,18.25
2018-02-04T04:43:15.050Z,18.00
2018-02-04T04:45:42.572Z,18.50
2018-02-04T04:48:10.870Z,17.67
2018-02-04T04:50:38.371Z,18.70
2018-02-04T04:53:05.876Z,18.15
2018-02-04T04:55:34.166Z,19.10
2018-02-04T04:58:01.689Z,19.40
2018-02-04T05:00:29.181Z,16.65
2018-02-04T05:02:56.685Z,18.75
2018-02-04T05:05:24.293Z,19.20
2018-02-04T05:07:52.553Z,19.87
2018-02-04T05:10:20.126Z,18.25
2018-02-04T05:12:48.412Z,19.12
2018-02-04T05:15:15.973Z,18.42
2018-02-04T05:17:43.492Z,18.27
2018-02-04T05:20:11.080Z,20.35
2018-02-04T05:22:39.356Z,18.60
2018-02-04T05:25:07.640Z,19.62
2018-02-04T05:27:35.908Z,21.37
2018-02-04T05:30:04.188Z,22.30
2018-02-04T05:32:32.472Z,21.25
2018-02-04T05:35:00.032Z,22.55
2018-02-04T05:37:27.531Z,22.42
2018-02-04T05:39:55.027Z,21.52
2018-02-04T05:42:23.297Z,22.58
2018-02-04T05:44:50.810Z,22.20
2018-02-04T05:47:18.365Z,22.65
2018-02-04T05:49:46.774Z,21.33
2018-02-04T05:52:14.276Z,23.62
2018-02-04T05:54:42.540Z,23.45
2018-02-04T05:57:10.846Z,21.67
2018-02-04T05:59:38.352Z,21.80
2018-02-04T06:02:05.841Z,22.67
2018-02-04T06:04:34.134Z,22.75
2018-02-04T06:07:01.685Z,22.15
2018-02-04T06:09:29.945Z,21.87
2018-02-04T06:11:58.231Z,21.27
2018-02-04T06:14:26.496Z,20.95
2018-02-04T06:16:54.076Z,21.17
2018-02-04T06:19:25.999Z,21.65
2018-02-04T06:21:53.492Z,23.85
2018-02-04T06:24:21.776Z,21.42
2018-02-04T06:26:49.272Z,20.65
2018-02-04T06:29:16.756Z,19.15
2018-02-04T06:31:44.297Z,21.10
2018-02-04T06:34:11.807Z,19.77
2018-02-04T06:36:40.356Z,19.67
2018-02-04T06:39:07.849Z,20.75
2018-02-04T06:41:35.351Z,23.00
2018-02-04T06:44:02.857Z,21.20
2018-02-04T06:46:31.140Z,21.90
2018-02-04T06:48:59.516Z,19.15
2018-02-04T06:51:27.788Z,21.48
2018-02-04T06:53:56.048Z,23.40
2018-02-04T06:56:23.634Z,21.08
2018-02-04T06:58:51.883Z,22.20
2018-02-04T07:01:19.407Z,20.75
2018-02-04T07:03:46.934Z,21.37
2018-02-04T07:06:14.478Z,21.52
2018-02-04T07:08:42.750Z,22.83
2018-02-04T07:11:11.049Z,22.13
2018-02-04T07:13:38.824Z,21.37
2018-02-04T07:16:06.325Z,22.15
2018-02-04T07:18:33.832Z,22.15
2018-02-04T07:21:01.340Z,37.38
2018-02-04T07:23:28.894Z,23.42
2018-02-04T07:25:56.382Z,25.27
2018-02-04T07:28:24.642Z,24.00
2018-02-04T07:30:52.138Z,21.87
2018-02-04T07:33:19.638Z,21.15
2018-02-04T07:35:47.132Z,21.98
2018-02-04T07:38:15.427Z,19.80
2018-02-04T07:40:42.979Z,22.20
2018-02-04T07:43:10.493Z,21.75
2018-02-04T07:45:37.991Z,22.70
2018-02-04T07:48:06.247Z,20.75
2018-02-04T07:50:34.646Z,22.95
2018-02-04T07:53:02.900Z,22.75
2018-02-04T07:55:30.484Z,24.35
2018-02-04T07:57:58.903Z,27.50
2018-02-04T08:00:26.422Z,23.10
2018-02-04T08:02:54.697Z,21.62
2018-02-04T08:05:22.947Z,21.50
2018-02-04T08:07:50.442Z,19.90
2018-02-04T08:10:18.048Z,21.15
2018-02-04T08:12:45.568Z,19.98
2018-02-04T08:15:13.084Z,17.27
2018-02-04T08:17:40.682Z,21.23
2018-02-04T08:20:08.948Z,19.45
2018-02-04T08:22:37.228Z,19.48
2018-02-04T08:25:04.749Z,20.95
2018-02-04T08:27:32.261Z,21.48
2018-02-04T08:29:59.761Z,21.62
2018-02-04T08:32:27.288Z,21.35
2018-02-04T08:34:54.779Z,21.10
2018-02-04T08:37:22.281Z,20.08
2018-02-04T08:39:50.559Z,17.42
2018-02-04T08:42:18.808Z,21.08
2018-02-04T08:44:46.324Z,19.42
2018-02-04T08:47:13.811Z,19.48
2018-02-04T08:49:41.296Z,22.08
2018-02-04T08:52:09.580Z,21.40
2018-02-04T08:54:37.838Z,20.10
2018-02-04T08:57:05.322Z,20.45
2018-02-04T08:59:32.841Z,19.50
2018-02-04T09:02:00.333Z,22.25
2018-02-04T09:04:28.585Z,21.77
2018-02-04T09:06:56.171Z,20.33
2018-02-04T09:09:23.674Z,22.70
2018-02-04T09:11:51.168Z,20.15
2018-02-04T09:14:19.441Z,21.17
2018-02-04T09:16:46.988Z,19.65
2018-02-04T09:19:15.312Z,20.33
2018-02-04T09:21:43.568Z,21.92
2018-02-04T09:24:11.833Z,19.87
2018-02-04T09:26:39.460Z,17.90
2018-02-04T09:29:06.952Z,17.47
2018-02-04T09:31:34.539Z,18.70
2018-02-04T09:34:02.103Z,19.63
2018-02-04T09:36:29.588Z,19.83
2018-02-04T09:38:57.085Z,19.50
2018-02-04T09:41:27.936Z,19.83
2018-02-04T09:43:56.211Z,22.80
2018-02-04T09:46:25.558Z,20.17
2018-02-04T09:48:53.056Z,19.30
2018-02-04T09:51:22.458Z,20.20
2018-02-04T09:53:49.951Z,21.50
2018-02-04T09:56:17.467Z,19.80
2018-02-04T09:58:46.511Z,20.63
2018-02-04T10:01:14.772Z,17.87
2018-02-04T10:03:43.051Z,24.13
2018-02-04T10:06:11.316Z,19.27
2018-02-04T10:08:39.593Z,16.90
2018-02-04T10:11:07.854Z,19.67
2018-02-04T10:13:35.355Z,20.23
2018-02-04T10:16:02.857Z,18.53
2018-02-04T10:18:30.412Z,17.23
2018-02-04T10:20:58.028Z,18.53
2018-02-04T10:23:25.611Z,17.27
2018-02-04T10:25:53.110Z,15.40
2018-02-04T10:28:20.608Z,18.30
2018-02-04T10:30:48.114Z,19.93
2018-02-04T10:33:15.637Z,18.10
2018-02-04T10:35:43.129Z,18.13
2018-02-04T10:38:10.621Z,18.70
2018-02-04T10:40:38.888Z,18.37
2018-02-04T10:43:07.176Z,18.13
2018-02-04T10:45:35.456Z,16.07
2018-02-04T10:48:02.953Z,18.13
2018-02-04T10:50:30.442Z,16.07
2018-02-04T10:52:57.953Z,16.40
2018-02-04T10:55:25.447Z,16.37
2018-02-04T10:57:53.064Z,18.70
2018-02-04T11:00:20.557Z,16.97
2018-02-04T11:02:48.077Z,15.10
2018-02-04T11:05:15.576Z,17.50
2018-02-04T11:07:43.060Z,14.33
2018-02-04T11:10:10.663Z,15.63
2018-02-04T11:12:38.153Z,14.97
2018-02-04T11:15:05.674Z,15.60
2018-02-04T11:17:33.272Z,14.13
2018-02-04T11:20:00.817Z,14.40
2018-02-04T11:22:28.384Z,14.37
2018-02-04T11:24:55.938Z,14.07
2018-02-04T11:27:23.486Z,14.50
2018-02-04T11:29:51.073Z,20.97
2018-02-04T11:32:21.194Z,16.23
2018-02-04T11:34:49.765Z,17.53
2018-02-04T11:37:17.291Z,14.33
2018-02-04T11:39:45.781Z,14.83
2018-02-04T11:42:14.184Z,16.60
2018-02-04T11:44:41.738Z,14.57
2018-02-04T11:47:09.297Z,18.60
2018-02-04T11:49:36.859Z,14.27
2018-02-04T11:52:04.412Z,13.97
2018-02-04T11:54:31.955Z,18.77
2018-02-04T11:56:59.557Z,15.80
2018-02-04T11:59:27.963Z,13.03
2018-02-04T12:01:57.375Z,14.90
2018-02-04T12:04:25.804Z,14.77
2018-02-04T12:06:53.359Z,15.80
2018-02-04T12:09:20.959Z,13.47
2018-02-04T12:11:49.397Z,13.47
2018-02-04T12:14:16.975Z,13.73
2018-02-04T12:16:45.043Z,12.77
2018-02-04T12:19:12.587Z,14.07
2018-02-04T12:21:40.122Z,12.97
2018-02-04T12:24:07.713Z,11.63
2018-02-04T12:26:35.383Z,12.57
2018-02-04T12:29:02.962Z,12.63
2018-02-04T12:31:30.512Z,14.00
2018-02-04T12:33:58.344Z,13.97
2018-02-04T12:36:26.015Z,13.47
2018-02-04T12:38:53.561Z,13.70
2018-02-04T12:41:21.110Z,12.70
2018-02-04T12:43:49.397Z,12.63
2018-02-04T12:46:16.924Z,13.23
2018-02-04T12:48:45.466Z,13.03
2018-02-04T12:51:13.834Z,11.50
2018-02-04T12:53:41.428Z,10.87
2018-02-04T12:56:09.028Z,10.50
2018-02-04T12:58:36.508Z,11.77
2018-02-04T13:01:04.085Z,10.30
2018-02-04T13:03:31.656Z,11.43
2018-02-04T13:05:59.317Z,9.97
2018-02-04T13:08:26.865Z,10.63
2018-02-04T13:10:58.066Z,11.33
2018-02-04T13:13:25.626Z,9.43
2018-02-04T13:15:53.166Z,9.73
2018-02-04T13:18:21.503Z,10.20
2018-02-04T13:20:49.039Z,13.97
2018-02-04T13:23:16.713Z,10.37
2018-02-04T13:25:44.318Z,11.47
2018-02-04T13:28:11.861Z,17.07
2018-02-04T13:30:41.362Z,14.27
2018-02-04T13:33:08.905Z,9.43
2018-02-04T13:35:36.450Z,8.53
2018-02-04T13:38:04.012Z,8.67
2018-02-04T13:40:31.554Z,8.57
2018-02-04T13:42:59.884Z,7.97
2018-02-04T13:45:27.492Z,8.13
2018-02-04T13:47:55.029Z,8.20
2018-02-04T13:50:23.539Z,9.17
2018-02-04T13:52:51.043Z,8.97
2018-02-04T13:55:18.548Z,8.77
2018-02-04T13:57:46.800Z,8.60
2018-02-04T14:00:14.392Z,8.87
2018-02-04T14:02:42.000Z,7.17
2018-02-04T14:05:09.487Z,7.20
2018-02-04T14:07:37.754Z,7.67
2018-02-04T14:10:05.245Z,7.20
2018-02-04T14:12:32.809Z,7.23
2018-02-04T14:15:00.312Z,8.57
2018-02-04T14:17:27.849Z,8.20
2018-02-04T14:19:55.382Z,8.47
2018-02-04T14:22:22.881Z,7.10
2018-02-04T14:24:50.366Z,8.40
2018-02-04T14:27:17.872Z,7.33
2018-02-04T14:29:45.390Z,6.57
2018-02-04T14:32:12.899Z,7.83
2018-02-04T14:34:40.475Z,6.97
2018-02-04T14:37:08.000Z,6.93
2018-02-04T14:39:35.548Z,7.70
2018-02-04T14:42:03.044Z,7.30
2018-02-04T14:44:30.567Z,6.97
2018-02-04T14:46:58.064Z,7.27
2018-02-04T14:49:25.578Z,7.17
2018-02-04T14:51:53.843Z,6.70
2018-02-04T14:54:22.092Z,5.93
2018-02-04T14:56:49.689Z,8.03
2018-02-04T14:59:17.946Z,7.97
2018-02-04T15:01:45.525Z,8.47
2018-02-04T15:04:13.800Z,6.87
2018-02-04T15:06:42.044Z,7.43
2018-02-04T15:09:09.533Z,8.77
2018-02-04T15:11:37.901Z,8.50
2018-02-04T15:14:06.191Z,8.03
2018-02-04T15:16:34.462Z,7.43
2018-02-04T15:19:02.784Z,8.53
2018-02-04T15:21:30.271Z,7.10
2018-02-04T15:23:57.785Z,9.17
2018-02-04T15:26:25.285Z,8.87
2018-02-04T15:28:52.776Z,7.83
2018-02-04T15:31:21.049Z,7.57
2018-02-04T15:33:49.313Z,7.47
2018-02-04T15:36:16.889Z,7.90
2018-02-04T15:38:45.173Z,8.37
2018-02-04T15:41:12.725Z,7.37
2018-02-04T15:43:40.988Z,8.90
2018-02-04T15:46:08.484Z,8.47
2018-02-04T15:48:35.992Z,8.37
2018-02-04T15:51:03.480Z,7.87
2018-02-04T15:53:31.058Z,7.93
2018-02-04T15:55:58.604Z,7.33
2018-02-04T15:58:26.094Z,7.00
2018-02-04T16:00:53.611Z,7.80
2018-02-04T16:03:21.880Z,7.03
2018-02-04T16:05:50.160Z,7.57
2018-02-04T16:08:18.432Z,9.87
2018-02-04T16:10:46.693Z,8.40
2018-02-04T16:13:14.327Z,8.23
2018-02-04T16:15:41.849Z,10.83
2018-02-04T16:18:09.378Z,9.17
2018-02-04T16:20:37.911Z,8.80
2018-02-04T16:23:05.400Z,8.90
2018-02-04T16:25:32.948Z,8.20
2018-02-04T16:28:00.531Z,8.48
2018-02-04T16:30:28.867Z,8.07
2018-02-04T16:32:56.570Z,8.60
2018-02-04T16:35:24.060Z,8.52
2018-02-04T16:37:52.424Z,7.53
2018-02-04T16:40:20.829Z,9.13
2018-02-04T16:42:48.478Z,9.10
2018-02-04T16:45:16.036Z,8.88
2018-02-04T16:47:44.310Z,9.52
2018-02-04T16:50:12.584Z,8.85
2018-02-04T16:52:40.893Z,9.02
2018-02-04T16:55:08.434Z,9.07
2018-02-04T16:57:35.988Z,9.15
2018-02-04T17:00:04.374Z,11.55
2018-02-04T17:02:31.980Z,10.68
2018-02-04T17:04:59.485Z,10.00
2018-02-04T17:07:27.763Z,12.15
2018-02-04T17:09:55.260Z,9.43
2018-02-04T17:12:22.776Z,10.57
2018-02-04T17:14:51.051Z,10.57
2018-02-04T17:17:19.381Z,9.90
2018-02-04T17:19:46.899Z,10.32
2018-02-04T17:22:15.145Z,11.15
2018-02-04T17:24:50.888Z,13.18
2018-02-04T17:27:18.397Z,14.55
2018-02-04T17:29:45.918Z,13.57
2018-02-04T17:32:15.477Z,13.38
2018-02-04T17:34:43.007Z,13.93
2018-02-04T17:37:10.602Z,15.48
2018-02-04T17:39:38.875Z,12.98
2018-02-04T17:42:06.482Z,13.30
2018-02-04T17:44:34.012Z,13.73
2018-02-04T17:47:01.533Z,14.63
2018-02-04T17:49:29.038Z,16.58
2018-02-04T17:51:56.536Z,13.93
2018-02-04T17:54:24.048Z,19.30
2018-02-04T17:56:51.560Z,17.08
2018-02-04T17:59:19.064Z,19.30
2018-02-04T18:01:47.524Z,19.52
2018-02-04T18:04:15.094Z,18.62
2018-02-04T18:06:42.652Z,15.98
2018-02-04T18:09:10.188Z,16.48
2018-02-04T18:11:37.702Z,14.77
2018-02-04T18:14:05.210Z,12.27
2018-02-04T18:16:32.993Z,12.77
2018-02-04T18:19:00.522Z,12.75
2018-02-04T18:21:28.081Z,13.45
2018-02-04T18:23:55.649Z,13.98
2018-02-04T18:26:23.167Z,14.80
2018-02-04T18:28:50.669Z,16.15
2018-02-04T18:31:18.158Z,14.60
2018-02-04T18:33:45.844Z,12.57
2018-02-04T18:36:14.139Z,15.20
2018-02-04T18:38:42.432Z,14.52
2018-02-04T18:41:13.717Z,14.57
2018-02-04T18:43:41.216Z,13.30
2018-02-04T18:46:09.485Z,14.65
2018-02-04T18:48:38.066Z,14.70
2018-02-04T18:51:06.531Z,13.50
2018-02-04T18:53:35.912Z,13.88
2018-02-04T18:56:03.557Z,13.98
2018-02-04T18:58:31.066Z,13.18
2018-02-04T19:00:59.739Z,14.18
2018-02-04T19:03:27.811Z,11.12
2018-02-04T19:05:56.708Z,12.50
2018-02-04T19:08:24.212Z,11.95
2018-02-04T19:10:51.714Z,13.85
2018-02-04T19:13:19.215Z,11.82
2018-02-04T19:15:46.786Z,12.23
2018-02-04T19:18:16.271Z,12.52
2018-02-04T19:20:44.749Z,14.18
2018-02-04T19:23:13.044Z,12.73
2018-02-04T19:25:40.583Z,14.10
2018-02-04T19:28:08.880Z,13.10
2018-02-04T19:30:37.479Z,13.10
2018-02-04T19:33:05.852Z,16.25
2018-02-04T19:35:33.424Z,14.40
2018-02-04T19:38:02.154Z,14.18
2018-02-04T19:40:30.471Z,14.87
2018-02-04T19:42:57.989Z,14.40
2018-02-04T19:45:30.148Z,14.05
2018-02-04T19:47:57.712Z,16.20
2018-02-04T19:50:25.187Z,18.30
2018-02-04T19:52:52.699Z,16.42
2018-02-04T19:55:20.200Z,15.57
2018-02-04T19:57:47.809Z,15.43
2018-02-04T20:00:15.305Z,15.70
2018-02-04T20:02:42.828Z,15.80
2018-02-04T20:05:10.335Z,16.80
2018-02-04T20:07:38.617Z,16.35
2018-02-04T20:10:06.923Z,17.65
2018-02-04T20:12:34.648Z,17.42
2018-02-04T20:15:02.249Z,17.40
2018-02-04T20:17:29.759Z,16.73
2018-02-04T20:19:57.288Z,19.17
2018-02-04T20:22:24.781Z,20.23
2018-02-04T20:24:52.386Z,21.25
2018-02-04T20:27:19.904Z,22.85
2018-02-04T20:29:48.162Z,19.75
2018-02-04T20:32:28.168Z,21.35
2018-02-04T20:34:55.668Z,21.02
2018-02-04T20:37:23.190Z,21.85
2018-02-04T20:39:50.696Z,21.17
2018-02-04T20:42:18.295Z,20.08
2018-02-04T20:44:46.593Z,22.87
2018-02-04T20:47:14.220Z,26.70
2018-02-04T20:49:42.481Z,26.52
2018-02-04T20:52:10.034Z,25.62
2018-02-04T20:54:38.492Z,25.27
2018-02-04T20:57:05.993Z,23.27
2018-02-04T20:59:34.306Z,22.77
2018-02-04T21:02:01.850Z,22.83
2018-02-04T21:04:29.340Z,23.38
2018-02-04T21:06:56.848Z,26.77
2018-02-04T21:09:25.148Z,26.60
2018-02-04T21:11:52.660Z,26.92
2018-02-04T21:14:20.268Z,27.17
2018-02-04T21:16:47.867Z,26.85
2018-02-04T21:19:15.380Z,26.40
2018-02-04T21:21:42.942Z,25.70
2018-02-04T21:24:10.439Z,26.23
2018-02-04T21:26:37.938Z,26.98
2018-02-04T21:29:06.210Z,28.08
2018-02-04T21:31:33.709Z,28.65
2018-02-04T21:34:01.256Z,28.50
2018-02-04T21:36:28.745Z,29.40
2018-02-04T21:38:56.245Z,30.88
2018-02-04T21:41:24.533Z,29.73
2018-02-04T21:43:52.796Z,32.03
2018-02-04T21:46:20.384Z,32.22
2018-02-04T21:48:48.614Z,33.55
2018-02-04T21:51:16.227Z,33.45
2018-02-04T21:53:43.730Z,38.25
2018-02-04T21:56:11.358Z,31.75
2018-02-04T21:58:38.923Z,33.97
2018-02-04T22:01:14.913Z,32.83
2018-02-04T22:06:24.532Z,30.77
2018-02-04T22:08:54.224Z,32.55
2018-02-04T22:11:31.496Z,33.88
2018-02-04T22:13:59.015Z,34.97
2018-02-04T22:16:26.651Z,32.40
2018-02-04T22:18:54.155Z,35.83
2018-02-04T22:21:21.655Z,35.67
2018-02-04T22:23:49.163Z,34.08
2018-02-04T22:26:16.712Z,36.90
2018-02-04T22:28:44.227Z,36.00
2018-02-04T22:31:11.729Z,39.00
2018-02-04T22:33:39.296Z,37.25
2018-02-04T22:36:06.806Z,34.90
2018-02-04T22:38:34.672Z,35.25
2018-02-04T22:41:02.897Z,37.78
2018-02-04T22:43:32.777Z,36.28
2018-02-04T22:46:00.396Z,33.92
2018-02-04T22:48:27.901Z,38.53
2018-02-04T22:50:55.443Z,37.80
2018-02-04T22:53:22.990Z,37.20
2018-02-04T22:55:51.381Z,37.58
2018-02-04T22:58:18.883Z,37.05
2018-02-04T23:00:46.386Z,37.80
2018-02-04T23:03:14.663Z,34.88
2018-02-04T23:05:43.016Z,37.60
2018-02-04T23:08:10.537Z,36.42
2018-02-04T23:10:38.066Z,36.75
2018-02-04T23:13:06.439Z,40.15
2018-02-04T23:15:34.715Z,37.97
2018-02-04T23:18:03.121Z,41.70
2018-02-04T23:20:30.643Z,42.25
2018-02-04T23:22:58.225Z,41.80
2018-02-04T23:25:25.739Z,45.90
2018-02-04T23:27:53.225Z,46.45
2018-02-04T23:30:20.764Z,45.63
2018-02-04T23:32:48.270Z,45.78
2018-02-04T23:35:15.776Z,45.28
2018-02-04T23:37:43.368Z,45.25
2018-02-04T23:40:11.645Z,45.53
2018-02-04T23:42:39.933Z,44.78
2018-02-04T23:45:07.449Z,43.55
2018-02-04T23:47:35.027Z,42.13
2018-02-04T23:50:03.316Z,46.05
2018-02-04T23:52:31.608Z,42.05
2018-02-04T23:54:59.210Z,45.95
2018-02-04T23:57:26.725Z,45.60
2018-02-04T23:59:54.277Z,42.90
